Time,TemperatureF,DewpointF,PressureIn,WindDirection,WindDirectionDegrees,WindSpeedMPH,WindSpeedGustMPH,Humidity,HourlyPrecipIn,Conditions,Clouds,dailyrainin,SoftwareType,DateUTC
2013-02-01 00:07:00,73.6,70.0,30.12,NNE,25,7.0,19.0,88,0.02,,,0.06,weatherlink.com 1.10,2013-02-01 06:07:00,
2013-02-01 00:22:00,73.8,70.0,30.12,NNE,25,10.0,17.0,87,0.00,,,0.06,weatherlink.com 1.10,2013-02-01 06:22:00,
2013-02-01 00:37:00,73.9,70.0,30.12,ENE,63,7.0,15.0,87,0.00,,,0.00,weatherlink.com 1.10,2013-02-01 06:37:00,
2013-02-01 00:53:00,75.3,71.0,30.12,NE,44,7.0,15.0,86,0.00,,,0.00,weatherlink.com 1.10,2013-02-01 06:53:00,
2013-02-01 01:07:00,-999.0,-99.9,30.11,North,-999,-999.0,-999.0,-999,0.00,,,0.00,weatherlink.com 1.10,2013-02-01 07:07:00,
2013-02-01 01:23:00,74.5,70.0,30.12,NNE,17,12.0,21.0,85,0.00,,,0.00,weatherlink.com 1.10,2013-02-01 07:23:00,
2013-02-01 01:47:00,74.3,70.0,30.11,ENE,62,6.0,13.0,86,0.00,,,0.00,weatherlink.com 1.10,2013-02-01 07:47:00,
2013-02-01 01:53:00,74.2,70.0,30.11,NE,47,8.0,19.0,86,0.00,,,0.00,weatherlink.com 1.10,2013-02-01 07:53:00,
2013-02-01 02:08:00,74.4,70.0,30.10,NE,48,11.0,16.0,85,0.00,,,0.00,weatherlink.com 1.10,2013-02-01 08:08:00,
2013-02-01 02:23:00,74.7,70.0,30.10,NE,42,10.0,18.0,84,0.00,,,0.00,weatherlink.com 1.10,2013-02-01 08:23:00,
2013-02-01 02:53:00,74.8,70.0,30.11,East,79,10.0,14.0,84,0.00,,,0.00,weatherlink.com 1.10,2013-02-01 08:53:00,
2013-02-01 03:08:00,74.9,69.0,30.11,NE,46,7.0,19.0,83,0.00,,,0.00,weatherlink.com 1.10,2013-02-01 09:08:00,
2013-02-01 03:23:00,75.0,70.0,30.11,NNE,12,11.0,18.0,83,0.00,,,0.00,weatherlink.com 1.10,2013-02-01 09:23:00,
2013-02-01 03:38:00,74.9,69.0,30.10,NE,46,13.0,20.0,82,0.00,,,0.00,weatherlink.com 1.10,2013-02-01 09:38:00,
2013-02-01 03:53:00,75.0,70.0,30.11,NE,47,12.0,20.0,83,0.00,,,0.00,weatherlink.com 1.10,2013-02-01 09:53:00,
2013-02-01 04:08:00,75.0,69.0,30.11,NE,34,8.0,19.0,82,0.00,,,0.00,weatherlink.com 1.10,2013-02-01 10:08:00,
2013-02-01 04:23:00,74.9,69.0,30.11,NE,34,11.0,19.0,81,0.00,,,0.00,weatherlink.com 1.10,2013-02-01 10:23:00,
2013-02-01 04:38:00,74.9,69.0,30.11,NNE,19,15.0,21.0,82,0.00,,,0.00,weatherlink.com 1.10,2013-02-01 10:38:00,
2013-02-01 04:53:00,74.9,69.0,30.12,NNE,29,16.0,21.0,81,0.00,,,0.00,weatherlink.com 1.10,2013-02-01 10:53:00,
2013-02-01 05:08:00,74.9,69.0,30.12,ENE,64,10.0,22.0,81,0.00,,,0.00,weatherlink.com 1.10,2013-02-01 11:08:00,
2013-02-01 05:23:00,74.9,69.0,30.13,North,4,16.0,21.0,81,0.00,,,0.00,weatherlink.com 1.10,2013-02-01 11:23:00,
2013-02-01 05:38:00,74.3,69.0,30.14,NNE,20,16.0,21.0,82,0.00,,,0.00,weatherlink.com 1.10,2013-02-01 11:38:00,
2013-02-01 05:53:00,73.4,69.0,30.14,NNE,22,12.0,22.0,86,0.00,,,0.00,weatherlink.com 1.10,2013-02-01 11:53:00,
2013-02-01 06:08:00,72.6,69.0,30.14,NNE,18,15.0,24.0,87,0.00,,,0.00,weatherlink.com 1.10,2013-02-01 12:08:00,
2013-02-01 06:23:00,72.9,69.0,30.15,NE,44,9.0,20.0,88,0.00,,,0.00,weatherlink.com 1.10,2013-02-01 12:23:00,
2013-02-01 06:38:00,73.1,69.0,30.15,NNE,17,11.0,18.0,86,0.00,,,0.00,weatherlink.com 1.10,2013-02-01 12:38:00,
2013-02-01 07:09:00,74.1,69.0,30.16,NE,44,7.0,17.0,84,0.00,,,0.00,weatherlink.com 1.10,2013-02-01 13:09:00,
2013-02-01 07:23:00,74.2,69.0,30.17,NE,53,11.0,20.0,83,0.00,,,0.00,weatherlink.com 1.10,2013-02-01 13:23:00,
2013-02-01 07:38:00,74.1,69.0,30.18,NE,44,9.0,22.0,83,0.00,,,0.00,weatherlink.com 1.10,2013-02-01 13:38:00,
2013-02-01 07:54:00,74.2,68.0,30.18,NNE,32,10.0,22.0,82,0.00,,,0.00,weatherlink.com 1.10,2013-02-01 13:54:00,
2013-02-01 08:08:00,73.9,69.0,30.18,ENE,66,15.0,22.0,83,0.00,,,0.00,weatherlink.com 1.10,2013-02-01 14:08:00,
2013-02-01 08:23:00,73.9,69.0,30.18,NNE,26,13.0,21.0,83,0.00,,,0.00,weatherlink.com 1.10,2013-02-01 14:23:00,
2013-02-01 08:39:00,74.1,68.0,30.19,NE,40,17.0,21.0,80,0.00,,,0.00,weatherlink.com 1.10,2013-02-01 14:39:00,
2013-02-01 08:53:00,74.4,69.0,30.19,NNE,28,11.0,21.0,82,0.00,,,0.00,weatherlink.com 1.10,2013-02-01 14:53:00,
2013-02-01 09:09:00,74.1,68.0,30.20,NE,44,18.0,26.0,81,0.00,,,0.00,weatherlink.com 1.10,2013-02-01 15:09:00,
2013-02-01 09:39:00,74.1,68.0,30.21,NE,53,14.0,20.0,81,0.00,,,0.00,weatherlink.com 1.10,2013-02-01 15:39:00,
2013-02-01 09:54:00,74.2,67.0,30.21,ENE,61,22.0,22.0,79,0.00,,,0.00,weatherlink.com 1.10,2013-02-01 15:54:00,
2013-02-01 10:09:00,74.0,68.0,30.21,NNE,22,15.0,24.0,80,0.00,,,0.00,weatherlink.com 1.10,2013-02-01 16:09:00,
2013-02-01 10:24:00,73.9,67.0,30.22,NE,44,21.0,24.0,80,0.00,,,0.00,weatherlink.com 1.10,2013-02-01 16:24:00,
2013-02-01 10:39:00,74.1,68.0,30.21,NE,51,17.0,23.0,80,0.00,,,0.00,weatherlink.com 1.10,2013-02-01 16:39:00,
2013-02-01 10:54:00,74.9,67.0,30.20,NW,314,11.0,22.0,77,0.00,,,0.00,weatherlink.com 1.10,2013-02-01 16:54:00,
2013-02-01 11:09:00,75.1,67.0,30.19,East,87,10.0,26.0,76,0.00,,,0.00,weatherlink.com 1.10,2013-02-01 17:09:00,
2013-02-01 11:24:00,75.7,67.0,30.19,NNE,17,14.0,22.0,75,0.00,,,0.00,weatherlink.com 1.10,2013-02-01 17:24:00,
2013-02-01 11:39:00,75.3,67.0,30.18,NNE,27,14.0,24.0,74,0.00,,,0.00,weatherlink.com 1.10,2013-02-01 17:39:00,
2013-02-01 11:54:00,75.1,67.0,30.18,East,90,12.0,22.0,75,0.00,,,0.00,weatherlink.com 1.10,2013-02-01 17:54:00,
2013-02-01 12:09:00,74.7,67.0,30.18,NNE,21,14.0,21.0,77,0.00,,,0.00,weatherlink.com 1.10,2013-02-01 18:09:00,
2013-02-01 12:24:00,74.2,67.0,30.17,NE,44,12.0,20.0,78,0.00,,,0.00,weatherlink.com 1.10,2013-02-01 18:24:00,
2013-02-01 12:39:00,73.9,67.0,30.17,NNE,28,7.0,23.0,78,0.00,,,0.00,weatherlink.com 1.10,2013-02-01 18:39:00,
2013-02-01 12:54:00,73.9,66.0,30.16,North,4,11.0,18.0,77,0.00,,,0.00,weatherlink.com 1.10,2013-02-01 18:54:00,
2013-02-01 13:09:00,73.7,66.0,30.16,NE,34,13.0,22.0,77,0.00,,,0.00,weatherlink.com 1.10,2013-02-01 19:09:00,
2013-02-01 13:24:00,73.4,66.0,30.16,NE,37,13.0,21.0,78,0.00,,,0.00,weatherlink.com 1.10,2013-02-01 19:24:00,
2013-02-01 13:39:00,73.1,66.0,30.15,NE,53,16.0,22.0,77,0.00,,,0.00,weatherlink.com 1.10,2013-02-01 19:39:00,
2013-02-01 14:09:00,73.1,66.0,30.14,ESE,102,12.0,20.0,77,0.00,,,0.00,weatherlink.com 1.10,2013-02-01 20:09:00,
2013-02-01 14:24:00,73.0,65.0,30.14,NE,47,16.0,23.0,77,0.00,,,0.00,weatherlink.com 1.10,2013-02-01 20:24:00,
2013-02-01 14:39:00,73.1,65.0,30.13,NNE,16,12.0,20.0,76,0.00,,,0.00,weatherlink.com 1.10,2013-02-01 20:39:00,
2013-02-01 14:54:00,74.1,65.0,30.14,NE,40,12.0,21.0,74,0.00,,,0.00,weatherlink.com 1.10,2013-02-01 20:54:00,
2013-02-01 15:09:00,73.6,65.0,30.14,North,4,14.0,19.0,74,0.00,,,0.00,weatherlink.com 1.10,2013-02-01 21:09:00,
2013-02-01 15:24:00,73.1,65.0,30.15,NE,56,15.0,20.0,75,0.00,,,0.00,weatherlink.com 1.10,2013-02-01 21:24:00,
2013-02-01 15:40:00,73.1,65.0,30.15,NNE,25,12.0,19.0,75,0.00,,,0.00,weatherlink.com 1.10,2013-02-01 21:40:00,
2013-02-01 15:54:00,73.0,65.0,30.14,NE,49,19.0,20.0,75,0.00,,,0.00,weatherlink.com 1.10,2013-02-01 21:54:00,
2013-02-01 16:09:00,73.0,65.0,30.15,NE,34,9.0,16.0,75,0.00,,,0.00,weatherlink.com 1.10,2013-02-01 22:09:00,
2013-02-01 16:24:00,72.8,64.0,30.15,NNE,25,11.0,17.0,74,0.00,,,0.00,weatherlink.com 1.10,2013-02-01 22:24:00,
2013-02-01 16:39:00,73.0,65.0,30.15,North,1,9.0,19.0,75,0.00,,,0.00,weatherlink.com 1.10,2013-02-01 22:39:00,
2013-02-01 16:54:00,72.9,65.0,30.15,NNE,20,8.0,20.0,75,0.00,,,0.00,weatherlink.com 1.10,2013-02-01 22:54:00,
2013-02-01 17:09:00,72.8,64.0,30.14,NE,34,11.0,20.0,75,0.00,,,0.00,weatherlink.com 1.10,2013-02-01 23:09:00,
2013-02-01 17:24:00,72.8,64.0,30.15,NNE,15,17.0,17.0,75,0.00,,,0.00,weatherlink.com 1.10,2013-02-01 23:24:00,
2013-02-01 17:39:00,72.7,64.0,30.15,NNE,27,14.0,19.0,75,0.00,,,0.00,weatherlink.com 1.10,2013-02-01 23:39:00,
2013-02-01 17:54:00,72.6,64.0,30.15,NNE,30,14.0,18.0,75,0.00,,,0.00,weatherlink.com 1.10,2013-02-01 23:54:00,
2013-02-01 18:09:00,72.6,65.0,30.15,NE,53,7.0,20.0,76,0.00,,,0.00,weatherlink.com 1.10,2013-02-02 00:09:00,
2013-02-01 18:29:00,72.5,65.0,30.15,ENE,64,14.0,23.0,76,0.00,,,0.00,weatherlink.com 1.10,2013-02-02 00:29:00,
2013-02-01 18:39:00,72.4,64.0,30.15,NE,56,14.0,20.0,75,0.00,,,0.00,weatherlink.com 1.10,2013-02-02 00:39:00,
2013-02-01 18:54:00,72.5,64.0,30.15,NNE,27,12.0,21.0,75,0.00,,,0.00,weatherlink.com 1.10,2013-02-02 00:54:00,
2013-02-01 19:09:00,72.6,65.0,30.15,NE,43,10.0,22.0,77,0.00,,,0.00,weatherlink.com 1.10,2013-02-02 01:09:00,
2013-02-01 19:25:00,72.4,64.0,30.16,ENE,76,11.0,21.0,75,0.00,,,0.00,weatherlink.com 1.10,2013-02-02 01:25:00,
2013-02-01 19:39:00,72.4,64.0,30.16,NNE,16,12.0,16.0,76,0.00,,,0.00,weatherlink.com 1.10,2013-02-02 01:39:00,
2013-02-01 19:54:00,72.4,64.0,30.17,ENE,64,12.0,16.0,76,0.00,,,0.00,weatherlink.com 1.10,2013-02-02 01:54:00,
2013-02-01 20:09:00,72.4,64.0,30.18,NNE,32,13.0,19.0,76,0.00,,,0.00,weatherlink.com 1.10,2013-02-02 02:09:00,
2013-02-01 20:24:00,72.4,64.0,30.18,NE,49,12.0,18.0,75,0.00,,,0.00,weatherlink.com 1.10,2013-02-02 02:24:00,
2013-02-01 20:39:00,72.5,65.0,30.18,NNE,25,7.0,16.0,76,0.00,,,0.00,weatherlink.com 1.10,2013-02-02 02:39:00,
2013-02-01 20:55:00,72.5,65.0,30.17,NE,46,6.0,17.0,76,0.00,,,0.00,weatherlink.com 1.10,2013-02-02 02:55:00,
2013-02-01 21:10:00,72.4,64.0,30.18,North,360,10.0,21.0,76,0.00,,,0.00,weatherlink.com 1.10,2013-02-02 03:10:00,
2013-02-01 21:24:00,72.4,64.0,30.18,NNW,342,8.0,16.0,76,0.00,,,0.00,weatherlink.com 1.10,2013-02-02 03:24:00,
2013-02-01 21:39:00,72.5,64.0,30.18,NW,314,12.0,17.0,75,0.00,,,0.00,weatherlink.com 1.10,2013-02-02 03:39:00,
2013-02-01 21:55:00,72.5,65.0,30.18,ENE,72,13.0,16.0,76,0.00,,,0.00,weatherlink.com 1.10,2013-02-02 03:55:00,
2013-02-01 22:09:00,72.5,65.0,30.17,NNE,15,11.0,16.0,76,0.00,,,0.00,weatherlink.com 1.10,2013-02-02 04:09:00,
2013-02-01 22:24:00,72.5,64.0,30.17,ENE,72,9.0,14.0,75,0.00,,,0.00,weatherlink.com 1.10,2013-02-02 04:24:00,
2013-02-01 22:39:00,72.5,65.0,30.16,NNE,28,12.0,16.0,76,0.00,,,0.00,weatherlink.com 1.10,2013-02-02 04:39:00,
2013-02-01 22:55:00,72.6,65.0,30.16,NE,34,10.0,15.0,76,0.00,,,0.00,weatherlink.com 1.10,2013-02-02 04:55:00,
2013-02-01 23:10:00,72.7,65.0,30.15,North,354,7.0,16.0,76,0.00,,,0.00,weatherlink.com 1.10,2013-02-02 05:10:00,
2013-02-01 23:25:00,72.8,65.0,30.15,NNE,25,10.0,17.0,76,0.00,,,0.00,weatherlink.com 1.10,2013-02-02 05:25:00,
2013-02-01 23:40:00,72.9,65.0,30.15,ENE,69,6.0,11.0,76,0.00,,,0.00,weatherlink.com 1.10,2013-02-02 05:40:00,
2013-02-01 23:55:00,72.9,65.0,30.15,NNE,27,10.0,16.0,75,0.00,,,0.00,weatherlink.com 1.10,2013-02-02 05:55:00,